Time;durP1;ratioP1;P1;durP2;ratioP2;P2;SDS_P1;SDS_P2;PMS_P1;PMS_P2;Temp;Humidity;BMP_temperature;BMP_pressure;BME280_temperature;BME280_humidity;BME280_pressure;Samples;Min_cycle;Max_cycle;Signal;HPM_P1;HPM_P2
2023/02/11 00:00:28;;;;;;;32.53;15.77;;;-0.70;99.90;;;;;;6149982;23;20431;-76
2023/02/11 00:02:54;;;;;;;31.27;15.27;;;-0.80;99.90;;;;;;6149633;23;21156;-76
2023/02/11 00:05:21;;;;;;;32.07;14.50;;;-0.80;99.90;;;;;;6149256;23;20419;-77
2023/02/11 00:07:48;;;;;;;24.03;14.50;;;-1.00;99.90;;;;;;6149389;23;20452;-76
2023/02/11 00:10:16;;;;;;;29.90;16.20;;;-1.00;99.90;;;;;;6149026;23;20423;-76
2023/02/11 00:12:43;;;;;;;23.73;14.30;;;-1.00;99.90;;;;;;6148787;23;20467;-76
2023/02/11 00:15:10;;;;;;;25.07;14.07;;;-1.00;99.90;;;;;;6148522;23;20738;-75
2023/02/11 00:17:37;;;;;;;18.90;13.20;;;-0.90;99.90;;;;;;6149008;23;20425;-77
2023/02/11 00:20:04;;;;;;;26.90;14.60;;;-0.80;99.90;;;;;;6148702;23;20395;-76
2023/02/11 00:22:31;;;;;;;29.00;14.10;;;-0.60;99.90;;;;;;6148573;23;20407;-76
2023/02/11 00:24:58;;;;;;;21.87;14.57;;;-0.80;99.90;;;;;;6148960;23;20416;-75
2023/02/11 00:27:26;;;;;;;25.50;15.47;;;-1.00;99.90;;;;;;6148672;23;20420;-76
2023/02/11 00:29:53;;;;;;;29.27;13.47;;;-1.10;99.90;;;;;;6149099;23;20451;-77
2023/02/11 00:32:19;;;;;;;30.87;14.57;;;-1.00;99.90;;;;;;6147917;23;20439;-76
2023/02/11 00:34:46;;;;;;;31.40;14.93;;;-1.00;99.90;;;;;;6149013;23;20415;-76
2023/02/11 00:37:13;;;;;;;22.37;12.87;;;-1.00;99.90;;;;;;6148702;23;20412;-76
2023/02/11 00:39:40;;;;;;;22.60;13.70;;;-1.20;99.90;;;;;;6148589;23;20411;-76
2023/02/11 00:42:07;;;;;;;34.53;16.03;;;-1.50;99.90;;;;;;6148796;23;20415;-76
2023/02/11 00:44:35;;;;;;;26.50;13.20;;;-1.40;99.90;;;;;;6148572;23;20400;-76
2023/02/11 00:47:01;;;;;;;24.67;12.83;;;-1.30;99.90;;;;;;6148891;23;20475;-76
2023/02/11 00:49:28;;;;;;;22.80;13.80;;;-1.20;99.90;;;;;;6148489;23;20452;-76
2023/02/11 00:51:55;;;;;;;22.43;12.73;;;-1.30;99.90;;;;;;6148670;23;20458;-77
2023/02/11 00:54:21;;;;;;;24.57;13.30;;;-1.40;99.90;;;;;;6148873;23;20400;-78
2023/02/11 00:56:48;;;;;;;32.60;14.77;;;-1.50;99.90;;;;;;6149668;23;20423;-76
2023/02/11 00:59:15;;;;;;;33.50;14.20;;;-1.60;99.90;;;;;;6149026;23;20431;-77
2023/02/11 01:01:43;;;;;;;28.53;15.80;;;-1.60;99.90;;;;;;6148296;23;20412;-77
2023/02/11 01:04:10;;;;;;;31.03;14.50;;;-1.50;99.90;;;;;;6151254;23;20412;-76
2023/02/11 01:06:37;;;;;;;30.90;16.57;;;-1.50;99.90;;;;;;6151993;23;20936;-80
2023/02/11 01:09:04;;;;;;;18.67;12.73;;;-1.50;99.90;;;;;;6149009;23;20450;-77
2023/02/11 01:11:30;;;;;;;23.07;13.93;;;-1.50;99.90;;;;;;6149312;23;20443;-77
2023/02/11 01:13:57;;;;;;;25.97;13.00;;;-1.40;99.90;;;;;;6149083;23;20753;-80
2023/02/11 01:16:24;;;;;;;24.57;14.00;;;-1.30;99.90;;;;;;6148733;23;20741;-78
2023/02/11 01:18:52;;;;;;;25.63;12.67;;;-1.30;99.90;;;;;;6148905;23;20405;-77
2023/02/11 01:21:19;;;;;;;24.73;14.80;;;-1.40;99.90;;;;;;6148378;23;20427;-79
2023/02/11 01:23:45;;;;;;;22.87;13.63;;;-1.40;99.90;;;;;;6149029;23;20416;-77
2023/02/11 01:26:12;;;;;;;18.57;11.73;;;-1.60;99.90;;;;;;6149120;23;20412;-78
2023/02/11 01:28:39;;;;;;;26.80;12.23;;;-1.50;99.90;;;;;;6148593;23;20463;-78
2023/02/11 01:31:06;;;;;;;22.03;13.13;;;-1.30;99.90;;;;;;6148748;23;20436;-77
2023/02/11 01:33:33;;;;;;;25.13;12.80;;;-1.30;99.90;;;;;;6148747;23;21013;-79
2023/02/11 01:36:05;;;;;;;24.70;13.57;;;-1.40;99.90;;;;;;6148625;23;20406;-78
2023/02/11 01:38:32;;;;;;;21.80;11.10;;;-1.50;99.90;;;;;;6150036;23;20411;-78
2023/02/11 01:41:01;;;;;;;24.33;13.27;;;-1.40;99.90;;;;;;6150887;23;20411;-79
2023/02/11 01:43:31;;;;;;;26.83;12.83;;;-1.50;99.90;;;;;;6150681;23;20412;-77
2023/02/11 01:46:12;;;;;;;24.13;13.50;;;-1.50;99.90;;;;;;6151280;23;20400;-78
2023/02/11 01:48:41;;;;;;;21.80;12.23;;;-1.50;99.90;;;;;;6150600;23;20451;-77
2023/02/11 01:51:14;;;;;;;22.13;12.03;;;-1.50;99.90;;;;;;6150731;23;20396;-77
2023/02/11 01:59:23;;;;;;;20.30;10.70;;;-1.30;99.90;;;;;;6150722;23;20375;-79
2023/02/11 02:01:56;;;;;;;21.27;10.60;;;-1.30;99.90;;;;;;6150500;23;20410;-78
2023/02/11 02:04:30;;;;;;;19.73;11.10;;;-1.20;99.90;;;;;;6150286;23;20886;-79
2023/02/11 02:07:03;;;;;;;18.20;10.67;;;-1.30;99.90;;;;;;6149875;23;20409;-78
2023/02/11 02:09:36;;;;;;;20.33;10.53;;;-1.40;99.90;;;;;;6150254;23;20519;-78
2023/02/11 02:12:03;;;;;;;18.83;11.07;;;-1.40;99.90;;;;;;6149920;23;20385;-79
2023/02/11 02:14:30;;;;;;;17.90;11.23;;;-1.50;99.90;;;;;;6150245;23;20416;-78
2023/02/11 02:16:56;;;;;;;20.40;10.87;;;-1.40;99.90;;;;;;6150201;23;20415;-77
2023/02/11 02:19:53;;;;;;;18.53;10.40;;;-1.40;99.90;;;;;;6150043;23;20403;-78
2023/02/11 02:22:50;;;;;;;18.10;10.70;;;-1.40;99.90;;;;;;6150406;23;20423;-78
2023/02/11 02:25:35;;;;;;;17.30;9.97;;;-1.50;99.90;;;;;;6149852;23;20406;-79
2023/02/11 02:28:16;;;;;;;14.40;10.83;;;-1.60;99.90;;;;;;6150325;23;20392;-79
2023/02/11 02:31:13;;;;;;;16.47;10.10;;;-1.50;99.90;;;;;;6149761;23;20407;-79
2023/02/11 02:33:46;;;;;;;19.60;11.67;;;-1.50;99.90;;;;;;6150229;23;20407;-78
2023/02/11 02:36:22;;;;;;;23.33;12.00;;;-1.50;99.90;;;;;;6150183;23;20978;-78
2023/02/11 02:38:53;;;;;;;17.07;10.60;;;-1.50;99.90;;;;;;6150352;23;20403;-78
2023/02/11 02:41:24;;;;;;;20.00;9.63;;;-1.50;99.90;;;;;;6149442;23;20385;-78
2023/02/11 02:43:52;;;;;;;20.50;11.17;;;-1.60;99.90;;;;;;6150113;23;20403;-77
2023/02/11 02:46:21;;;;;;;23.80;11.80;;;-1.70;99.90;;;;;;6149578;23;20422;-77
2023/02/11 02:48:51;;;;;;;16.57;10.07;;;-1.70;99.90;;;;;;6149963;23;20448;-77
2023/02/11 02:51:38;;;;;;;18.40;9.17;;;-1.60;99.90;;;;;;6149583;23;20427;-78
2023/02/11 02:54:24;;;;;;;15.60;8.23;;;-1.50;99.90;;;;;;6150192;23;20396;-77
2023/02/11 02:56:56;;;;;;;14.40;9.33;;;-1.60;99.90;;;;;;6149760;23;20846;-77
2023/02/11 02:59:34;;;;;;;15.67;9.60;;;-1.50;99.90;;;;;;6149665;23;20410;-78
2023/02/11 03:02:11;;;;;;;21.77;11.60;;;-1.60;99.90;;;;;;6150183;23;20411;-77
2023/02/11 03:04:48;;;;;;;17.53;10.23;;;-1.60;99.90;;;;;;6150412;23;20491;-78
2023/02/11 03:07:22;;;;;;;17.97;11.50;;;-1.70;99.90;;;;;;6149639;23;20424;-78
2023/02/11 03:09:54;;;;;;;20.73;11.30;;;-1.60;99.90;;;;;;6149856;23;20733;-78
2023/02/11 03:12:23;;;;;;;19.57;10.77;;;-1.70;99.90;;;;;;6149551;23;20482;-78
2023/02/11 03:14:51;;;;;;;17.53;9.87;;;-1.70;99.90;;;;;;6149387;23;20411;-78
2023/02/11 03:17:19;;;;;;;16.20;8.87;;;-1.70;99.90;;;;;;6149375;23;20755;-78
2023/02/11 03:19:49;;;;;;;21.93;9.17;;;-1.60;99.90;;;;;;6149686;23;20915;-78
2023/02/11 03:22:20;;;;;;;13.80;9.13;;;-1.60;99.90;;;;;;6149681;23;20404;-79
2023/02/11 03:24:48;;;;;;;15.50;9.00;;;-1.70;99.90;;;;;;6149538;23;20755;-77
2023/02/11 03:27:20;;;;;;;13.10;8.20;;;-1.80;99.90;;;;;;6149268;23;20415;-77
2023/02/11 03:29:53;;;;;;;12.13;7.83;;;-1.80;99.90;;;;;;6149411;23;20525;-78
2023/02/11 03:32:25;;;;;;;23.20;9.20;;;-1.80;99.90;;;;;;6148612;23;20755;-78
2023/02/11 03:34:57;;;;;;;18.83;10.20;;;-1.80;99.90;;;;;;6149376;23;20399;-77
2023/02/11 03:37:29;;;;;;;17.57;10.70;;;-1.70;99.90;;;;;;6149548;23;20405;-79
2023/02/11 03:40:00;;;;;;;17.37;8.27;;;-1.70;99.90;;;;;;6149028;23;20388;-78
2023/02/11 03:42:33;;;;;;;14.73;8.57;;;-1.60;99.90;;;;;;6149350;23;20389;-77
2023/02/11 03:45:04;;;;;;;23.50;10.77;;;-1.60;99.90;;;;;;6149204;23;20404;-78
2023/02/11 03:47:33;;;;;;;14.13;7.87;;;-1.40;99.90;;;;;;6149575;23;20396;-79
2023/02/11 03:50:04;;;;;;;13.40;7.50;;;-1.40;99.90;;;;;;6149337;23;20448;-78
2023/02/11 03:52:32;;;;;;;12.83;8.63;;;-1.50;99.90;;;;;;6149614;23;21097;-80
2023/02/11 03:55:02;;;;;;;19.00;9.37;;;-1.50;99.90;;;;;;6149589;23;20738;-79
2023/02/11 03:57:30;;;;;;;17.37;9.50;;;-1.40;99.90;;;;;;6150264;23;20396;-78
2023/02/11 03:59:58;;;;;;;18.53;10.47;;;-1.40;99.90;;;;;;6152473;23;20427;-77
2023/02/11 04:02:27;;;;;;;11.93;6.90;;;-1.60;99.90;;;;;;6158448;23;20416;-77
2023/02/11 04:04:53;;;;;;;13.07;6.83;;;-1.60;99.90;;;;;;6157839;23;20486;-79
2023/02/11 04:07:22;;;;;;;11.37;7.90;;;-1.70;99.90;;;;;;6158479;23;20420;-80
2023/02/11 04:09:48;;;;;;;20.03;7.70;;;-1.60;99.90;;;;;;6155979;23;20449;-78
2023/02/11 04:12:15;;;;;;;14.33;6.80;;;-1.60;99.90;;;;;;6149925;23;20411;-77
2023/02/11 04:14:42;;;;;;;12.33;6.90;;;-1.50;99.90;;;;;;6150292;23;20450;-78
2023/02/11 04:17:09;;;;;;;14.47;7.77;;;-1.60;99.90;;;;;;6151643;23;20472;-78
2023/02/11 04:19:36;;;;;;;15.67;7.30;;;-1.40;99.90;;;;;;6151156;23;20409;-78
2023/02/11 04:22:03;;;;;;;8.50;6.27;;;-1.50;99.90;;;;;;6150521;23;20407;-78
2023/02/11 04:24:31;;;;;;;14.30;7.27;;;-1.40;99.90;;;;;;6151324;23;20409;-79
2023/02/11 04:26:58;;;;;;;12.50;8.17;;;-1.50;99.90;;;;;;6159283;23;20414;-79
2023/02/11 04:29:25;;;;;;;14.67;8.13;;;-1.50;99.90;;;;;;6159251;23;20460;-79
2023/02/11 04:31:52;;;;;;;11.20;5.77;;;-1.70;99.90;;;;;;6158496;23;20440;-78
2023/02/11 04:34:18;;;;;;;11.17;7.60;;;-1.50;99.90;;;;;;6158023;23;20499;-80
2023/02/11 04:36:45;;;;;;;16.10;6.97;;;-1.50;99.90;;;;;;6160761;23;20412;-82
2023/02/11 04:39:12;;;;;;;13.23;6.37;;;-1.70;99.90;;;;;;6160197;23;20406;-81
2023/02/11 04:41:40;;;;;;;12.97;7.40;;;-1.80;99.90;;;;;;6159393;23;20397;-81
2023/02/11 04:44:07;;;;;;;14.60;7.03;;;-1.70;99.90;;;;;;6158047;23;20416;-78
2023/02/11 04:46:34;;;;;;;12.40;7.57;;;-1.60;99.90;;;;;;6151301;23;21161;-79
2023/02/11 04:49:01;;;;;;;10.90;6.50;;;-1.60;99.90;;;;;;6151952;23;20413;-78
2023/02/11 04:51:27;;;;;;;10.30;7.43;;;-1.70;99.90;;;;;;6151461;23;20424;-78
2023/02/11 04:53:54;;;;;;;8.63;5.83;;;-1.80;99.90;;;;;;6150730;23;20448;-80
2023/02/11 04:56:21;;;;;;;10.23;6.90;;;-1.70;99.90;;;;;;6150382;23;20996;-79
2023/02/11 04:58:49;;;;;;;9.80;6.13;;;-1.80;99.90;;;;;;6150056;23;20418;-79
2023/02/11 05:01:16;;;;;;;13.30;6.27;;;-1.70;99.90;;;;;;6149423;23;20410;-80
2023/02/11 05:03:43;;;;;;;18.47;7.27;;;-1.60;99.90;;;;;;6149450;23;20749;-80
2023/02/11 05:06:11;;;;;;;12.57;7.57;;;-1.60;99.90;;;;;;6149789;23;20410;-79
2023/02/11 05:08:38;;;;;;;17.07;8.23;;;-1.80;99.90;;;;;;6149479;23;20430;-80
2023/02/11 05:11:05;;;;;;;10.03;5.90;;;-1.90;99.90;;;;;;6148539;23;21107;-78
2023/02/11 05:13:32;;;;;;;13.23;5.70;;;-2.00;99.90;;;;;;6150318;23;20511;-78
2023/02/11 05:16:00;;;;;;;8.40;5.33;;;-1.90;99.90;;;;;;6151765;23;20415;-79
2023/02/11 05:18:27;;;;;;;11.53;6.80;;;-1.90;99.90;;;;;;6150950;23;20479;-80
2023/02/11 05:20:53;;;;;;;10.57;6.70;;;-1.70;99.90;;;;;;6151240;23;20412;-79
2023/02/11 05:23:20;;;;;;;10.63;6.03;;;-1.80;99.90;;;;;;6151381;23;20412;-77
2023/02/11 05:25:47;;;;;;;9.10;6.60;;;-1.60;99.90;;;;;;6151453;23;20416;-79
2023/02/11 05:28:14;;;;;;;10.20;5.93;;;-2.00;99.90;;;;;;6151157;23;20427;-78
2023/02/11 05:30:40;;;;;;;9.97;7.00;;;-1.60;99.90;;;;;;6150563;23;20458;-79
2023/02/11 05:33:08;;;;;;;14.67;6.77;;;-1.70;99.90;;;;;;6151484;23;20447;-78
2023/02/11 05:35:35;;;;;;;13.60;7.30;;;-1.70;99.90;;;;;;6152835;23;20752;-77
2023/02/11 05:38:02;;;;;;;11.33;7.23;;;-1.40;99.90;;;;;;6152469;23;20411;-78
2023/02/11 05:40:29;;;;;;;11.77;6.80;;;-1.50;99.90;;;;;;6152643;23;20409;-78
2023/02/11 05:42:55;;;;;;;16.03;6.97;;;-1.50;99.90;;;;;;6152240;23;20966;-80
2023/02/11 05:45:22;;;;;;;14.50;7.37;;;-1.30;99.90;;;;;;6152296;23;20419;-79
2023/02/11 05:47:49;;;;;;;13.10;6.53;;;-1.40;99.90;;;;;;6151739;23;20942;-80
2023/02/11 05:50:17;;;;;;;11.47;6.13;;;-1.40;99.90;;;;;;6152621;23;20443;-78
2023/02/11 05:52:44;;;;;;;10.77;6.60;;;-1.40;99.90;;;;;;6152150;23;20440;-79
2023/02/11 05:55:11;;;;;;;13.97;8.47;;;-1.50;99.90;;;;;;6152757;23;20423;-79
2023/02/11 05:57:37;;;;;;;10.43;6.20;;;-1.70;99.90;;;;;;6151877;23;21121;-78
2023/02/11 06:00:05;;;;;;;10.33;6.37;;;-1.60;99.90;;;;;;6152111;23;20420;-78
2023/02/11 06:02:32;;;;;;;11.73;8.17;;;-1.40;99.90;;;;;;6151981;23;20423;-78
2023/02/11 06:04:59;;;;;;;11.23;6.93;;;-1.40;99.90;;;;;;6152758;23;20419;-79
2023/02/11 06:07:27;;;;;;;10.50;6.50;;;-1.30;99.90;;;;;;6152211;23;20393;-80
2023/02/11 06:09:54;;;;;;;12.87;6.37;;;-1.50;99.90;;;;;;6151018;23;20768;-79
2023/02/11 06:12:21;;;;;;;10.17;6.23;;;-1.70;99.90;;;;;;6151033;23;20400;-78
2023/02/11 06:14:47;;;;;;;7.90;5.43;;;-1.60;99.90;;;;;;6151472;23;20415;-79
2023/02/11 06:17:14;;;;;;;9.70;6.67;;;-1.50;99.90;;;;;;6151305;23;20507;-80
2023/02/11 06:19:41;;;;;;;8.60;6.27;;;-1.40;99.90;;;;;;6151335;23;20407;-80
2023/02/11 06:22:07;;;;;;;9.13;5.30;;;-1.40;99.90;;;;;;6152003;23;20422;-80
2023/02/11 06:24:36;;;;;;;9.60;5.87;;;-1.40;99.90;;;;;;6151826;23;20484;-79
2023/02/11 06:27:03;;;;;;;15.20;6.63;;;-1.30;99.90;;;;;;6151348;23;20654;-78
2023/02/11 06:29:30;;;;;;;8.00;5.10;;;-1.30;99.90;;;;;;6152654;23;20415;-79
2023/02/11 06:31:57;;;;;;;9.70;6.30;;;-1.20;99.90;;;;;;6151691;23;20443;-79
2023/02/11 06:34:24;;;;;;;10.23;6.90;;;-1.10;99.90;;;;;;6152092;23;20411;-78
2023/02/11 06:36:50;;;;;;;7.83;6.10;;;-1.20;99.90;;;;;;6154444;23;20931;-78
2023/02/11 06:39:17;;;;;;;8.60;5.80;;;-1.20;99.90;;;;;;6153213;23;20437;-80
2023/02/11 06:41:45;;;;;;;11.93;6.83;;;-1.10;99.90;;;;;;6156610;23;20400;-79
2023/02/11 06:44:12;;;;;;;9.97;6.53;;;-0.90;99.90;;;;;;6157679;23;20440;-79
2023/02/11 06:46:39;;;;;;;10.43;6.77;;;-0.80;99.90;;;;;;6156168;23;20413;-80
2023/02/11 06:49:05;;;;;;;8.67;6.50;;;-0.60;99.90;;;;;;6156558;23;20407;-77
2023/02/11 06:51:32;;;;;;;10.20;6.27;;;-0.60;99.90;;;;;;6150163;23;20463;-78
2023/02/11 06:53:59;;;;;;;19.20;7.53;;;-0.50;99.90;;;;;;6151615;23;20490;-79
2023/02/11 06:56:26;;;;;;;12.47;6.77;;;-0.50;99.90;;;;;;6150679;23;20646;-77
2023/02/11 06:58:55;;;;;;;11.87;7.00;;;-0.50;99.90;;;;;;6151292;23;20489;-78
2023/02/11 07:01:23;;;;;;;11.10;7.10;;;-0.50;99.90;;;;;;6151229;23;20969;-78
2023/02/11 07:03:51;;;;;;;15.20;5.37;;;-0.60;99.90;;;;;;6151023;23;20408;-79
2023/02/11 07:06:20;;;;;;;6.40;5.37;;;-0.50;99.90;;;;;;6151395;23;20426;-76
2023/02/11 07:08:48;;;;;;;6.83;4.73;;;-0.20;99.90;;;;;;6149027;23;20914;-73
2023/02/11 07:11:17;;;;;;;9.37;6.00;;;-0.10;99.90;;;;;;6162097;23;20448;-80
2023/02/11 07:13:44;;;;;;;9.17;5.87;;;-0.10;99.90;;;;;;6161604;23;20455;-81
2023/02/11 07:16:15;;;;;;;9.17;5.37;;;0.00;99.90;;;;;;6163875;23;20491;-81
2023/02/11 07:18:42;;;;;;;11.30;5.50;;;0.00;99.90;;;;;;6150648;23;20412;-82
2023/02/11 07:21:11;;;;;;;8.67;5.73;;;-0.20;99.90;;;;;;6150139;23;20423;-78
2023/02/11 07:23:38;;;;;;;10.33;5.43;;;-0.20;99.90;;;;;;6149694;23;20490;-77
2023/02/11 07:26:05;;;;;;;13.80;6.47;;;0.00;99.90;;;;;;6147273;23;20554;-78
2023/02/11 07:28:34;;;;;;;8.03;5.60;;;0.00;99.90;;;;;;6148008;23;20426;-79
2023/02/11 07:31:06;;;;;;;8.23;5.87;;;-0.20;99.90;;;;;;6149400;23;20452;-76
2023/02/11 07:33:34;;;;;;;10.27;6.00;;;-0.20;99.90;;;;;;6148994;23;20400;-77
2023/02/11 07:36:01;;;;;;;12.53;5.30;;;-0.30;99.90;;;;;;6149739;23;20412;-77
2023/02/11 07:38:28;;;;;;;16.80;5.80;;;-0.10;99.90;;;;;;6149743;23;20420;-75
2023/02/11 07:40:55;;;;;;;8.77;5.70;;;0.10;99.90;;;;;;6148743;23;20420;-76
2023/02/11 07:43:22;;;;;;;9.00;5.90;;;0.20;99.90;;;;;;6149049;23;20397;-75
2023/02/11 07:45:48;;;;;;;16.73;5.63;;;0.10;99.90;;;;;;6148844;23;20414;-75
2023/02/11 07:48:15;;;;;;;8.37;4.93;;;-0.10;99.90;;;;;;6149154;23;20416;-75
2023/02/11 07:50:43;;;;;;;5.50;4.97;;;0.10;99.90;;;;;;6149329;23;20447;-75
2023/02/11 07:53:10;;;;;;;10.57;5.23;;;0.40;99.90;;;;;;6149735;23;20428;-75
2023/02/11 07:55:37;;;;;;;11.23;5.37;;;0.50;99.90;;;;;;6149013;23;20408;-76
2023/02/11 07:58:03;;;;;;;10.97;6.43;;;0.60;99.90;;;;;;6148279;23;20425;-75
2023/02/11 08:00:30;;;;;;;11.00;5.30;;;0.70;99.90;;;;;;6148093;23;20418;-75
2023/02/11 08:02:57;;;;;;;8.90;6.97;;;0.70;99.90;;;;;;6148451;23;20423;-75
2023/02/11 08:05:24;;;;;;;11.27;6.50;;;0.60;99.90;;;;;;6148697;23;20415;-77
2023/02/11 08:07:53;;;;;;;6.80;4.40;;;0.70;99.90;;;;;;6148743;23;20447;-75
2023/02/11 08:10:20;;;;;;;9.77;6.00;;;0.70;99.90;;;;;;6148778;23;20444;-78
2023/02/11 08:12:47;;;;;;;7.30;5.13;;;0.80;99.90;;;;;;6148245;23;20415;-76
2023/02/11 08:15:14;;;;;;;8.93;6.77;;;0.70;99.90;;;;;;6149093;23;20526;-76
2023/02/11 08:17:41;;;;;;;10.00;6.20;;;0.90;99.90;;;;;;6149309;23;20427;-76
2023/02/11 08:20:08;;;;;;;10.50;5.87;;;0.90;99.90;;;;;;6149767;23;20408;-75
2023/02/11 08:22:35;;;;;;;6.30;5.27;;;1.20;99.90;;;;;;6149303;23;20423;-74
2023/02/11 08:25:03;;;;;;;10.37;6.77;;;0.90;99.90;;;;;;6149111;23;20427;-76
2023/02/11 08:27:30;;;;;;;47.20;13.33;;;1.10;99.90;;;;;;6149126;23;20420;-77
2023/02/11 08:29:58;;;;;;;9.07;7.37;;;1.30;99.90;;;;;;6148162;23;20961;-75
2023/02/11 08:32:26;;;;;;;15.80;7.13;;;1.20;99.90;;;;;;6147384;23;20471;-75
2023/02/11 08:34:53;;;;;;;18.60;9.10;;;1.30;99.90;;;;;;6150075;23;20939;-85
2023/02/11 08:37:21;;;;;;;15.10;7.20;;;1.30;99.90;;;;;;6151611;23;20411;-81
2023/02/11 08:39:48;;;;;;;23.13;8.50;;;1.30;99.90;;;;;;6149896;23;20420;-81
2023/02/11 08:42:17;;;;;;;16.20;8.50;;;1.20;99.90;;;;;;6152437;23;20413;-75
2023/02/11 08:44:43;;;;;;;13.33;6.83;;;1.40;99.90;;;;;;6152312;23;20545;-77
2023/02/11 08:47:10;;;;;;;13.07;7.17;;;1.30;99.90;;;;;;6150888;23;20438;-77
2023/02/11 08:49:37;;;;;;;11.20;6.63;;;1.30;99.90;;;;;;6149045;23;20403;-75
2023/02/11 08:52:04;;;;;;;12.03;7.30;;;1.40;99.90;;;;;;6148633;23;20978;-75
2023/02/11 08:54:31;;;;;;;7.83;6.00;;;1.40;99.90;;;;;;6148885;23;20420;-75
2023/02/11 08:56:59;;;;;;;11.13;6.77;;;1.50;99.90;;;;;;6148463;23;20409;-76
2023/02/11 08:59:27;;;;;;;13.93;7.37;;;1.90;99.90;;;;;;6148416;23;20973;-76
2023/02/11 09:01:54;;;;;;;17.20;6.07;;;1.90;99.90;;;;;;6148960;23;20423;-78
2023/02/11 09:04:21;;;;;;;11.47;6.50;;;2.00;99.90;;;;;;6148146;23;20440;-78
2023/02/11 09:06:48;;;;;;;11.23;7.10;;;2.10;99.90;;;;;;6147967;23;20496;-84
2023/02/11 09:09:16;;;;;;;12.80;7.80;;;2.50;99.90;;;;;;6148144;23;20443;-79
2023/02/11 09:11:44;;;;;;;9.90;7.60;;;2.60;99.90;;;;;;6149012;23;20444;-77
2023/02/11 09:14:16;;;;;;;12.13;6.53;;;2.60;99.90;;;;;;6148848;23;20400;-77
2023/02/11 09:16:45;;;;;;;11.27;6.90;;;2.70;99.90;;;;;;6150251;23;20407;-77
2023/02/11 09:19:11;;;;;;;15.67;7.93;;;2.40;99.90;;;;;;6149456;23;20431;-86
2023/02/11 09:21:38;;;;;;;13.90;7.20;;;2.50;99.90;;;;;;6148251;23;20405;-78
2023/02/11 09:24:06;;;;;;;16.17;8.20;;;2.20;99.90;;;;;;6148702;23;20502;-81
2023/02/11 09:26:35;;;;;;;12.00;7.30;;;2.10;99.90;;;;;;6151286;23;21017;-79
2023/02/11 09:29:02;;;;;;;15.87;8.77;;;2.60;99.90;;;;;;6148806;23;20921;-82
2023/02/11 09:31:31;;;;;;;16.63;7.83;;;2.80;99.90;;;;;;6151563;23;20459;-77
2023/02/11 09:34:02;;;;;;;11.23;7.13;;;2.60;99.90;;;;;;6149193;23;20410;-77
2023/02/11 09:36:30;;;;;;;12.33;7.10;;;2.60;99.90;;;;;;6149123;23;20859;-77
2023/02/11 09:39:00;;;;;;;13.90;8.10;;;2.80;99.90;;;;;;6148595;23;20400;-77
2023/02/11 09:41:39;;;;;;;17.33;7.27;;;2.80;99.90;;;;;;6148864;23;20409;-76
2023/02/11 09:44:08;;;;;;;10.87;7.10;;;2.90;99.90;;;;;;6149407;23;20862;-76
2023/02/11 09:46:39;;;;;;;12.90;6.73;;;3.00;99.90;;;;;;6148070;23;20418;-77
2023/02/11 09:49:15;;;;;;;12.30;7.10;;;3.00;99.90;;;;;;6149019;23;20397;-78
2023/02/11 09:51:47;;;;;;;12.50;8.30;;;2.80;99.90;;;;;;6147410;23;21249;-76
2023/02/11 09:54:20;;;;;;;16.90;9.17;;;2.60;99.90;;;;;;6150663;23;20411;-76
2023/02/11 09:56:47;;;;;;;14.53;8.23;;;2.60;99.90;;;;;;6158259;23;20393;-82
2023/02/11 09:59:16;;;;;;;18.70;8.83;;;3.00;99.90;;;;;;6157019;23;20413;-78
2023/02/11 10:01:49;;;;;;;11.17;7.73;;;3.80;99.90;;;;;;6151967;23;20404;-89
2023/02/11 10:04:36;;;;;;;12.03;7.57;;;4.20;99.90;;;;;;6149107;23;20423;-78
2023/02/11 10:07:15;;;;;;;13.90;9.90;;;5.50;99.90;;;;;;6150750;23;20926;-77
2023/02/11 10:09:56;;;;;;;15.60;9.70;;;5.50;99.90;;;;;;6151125;23;20420;-83
2023/02/11 10:12:37;;;;;;;12.80;8.70;;;4.60;99.90;;;;;;6149989;23;20443;-81
2023/02/11 10:15:21;;;;;;;18.77;9.33;;;4.40;99.90;;;;;;6150097;23;20397;-77
2023/02/11 10:18:01;;;;;;;13.23;8.77;;;4.70;99.90;;;;;;6150570;23;21200;-81
2023/02/11 10:20:35;;;;;;;12.47;8.80;;;5.00;99.90;;;;;;6152530;23;20397;-81
2023/02/11 10:23:10;;;;;;;15.20;10.40;;;5.30;99.90;;;;;;6142655;23;20676;-78
2023/02/11 10:25:39;;;;;;;12.60;8.20;;;4.70;99.90;;;;;;6140500;23;20748;-77
2023/02/11 10:28:13;;;;;;;18.00;10.37;;;5.10;99.90;;;;;;6145720;23;20421;-79
2023/02/11 10:30:44;;;;;;;15.67;9.80;;;5.60;99.90;;;;;;6146149;23;21034;-78
2023/02/11 10:33:19;;;;;;;16.87;10.17;;;4.90;99.90;;;;;;6146493;23;20798;-76
2023/02/11 10:35:47;;;;;;;11.43;8.70;;;4.40;99.90;;;;;;6145717;23;20588;-76
2023/02/11 10:38:14;;;;;;;15.30;9.03;;;4.80;99.90;;;;;;6144185;23;20413;-75
2023/02/11 10:40:41;;;;;;;15.17;9.10;;;4.80;99.90;;;;;;6147008;23;20416;-79
2023/02/11 10:43:12;;;;;;;15.87;9.63;;;5.20;99.90;;;;;;6146111;23;20413;-76
2023/02/11 10:45:43;;;;;;;15.83;11.03;;;5.20;99.90;;;;;;6145280;23;21025;-79
2023/02/11 10:48:36;;;;;;;15.37;10.73;;;4.80;99.90;;;;;;6146553;23;20401;-82
2023/02/11 10:51:16;;;;;;;17.77;9.97;;;4.70;99.90;;;;;;6146301;23;22335;-75
2023/02/11 10:53:43;;;;;;;15.43;9.77;;;4.60;99.90;;;;;;6146726;23;20772;-76
2023/02/11 10:56:13;;;;;;;14.67;9.23;;;4.60;99.90;;;;;;6146262;23;20836;-76
2023/02/11 10:58:44;;;;;;;19.27;9.43;;;5.10;99.90;;;;;;6146725;23;20397;-78
2023/02/11 11:01:11;;;;;;;14.80;10.20;;;5.40;99.90;;;;;;6145921;23;20457;-76
2023/02/11 11:03:40;;;;;;;20.83;10.73;;;5.00;99.90;;;;;;6145699;23;20910;-79
2023/02/11 11:06:10;;;;;;;19.17;10.60;;;4.90;99.90;;;;;;6145562;23;20412;-78
2023/02/11 11:08:42;;;;;;;13.60;9.10;;;5.00;99.90;;;;;;6145867;23;20907;-77
2023/02/11 11:11:11;;;;;;;19.40;11.47;;;6.10;99.90;;;;;;6148968;23;20420;-80
2023/02/11 11:13:39;;;;;;;19.07;11.27;;;5.70;99.90;;;;;;6146481;23;20396;-84
2023/02/11 11:16:31;;;;;;;17.93;11.40;;;5.40;99.90;;;;;;6146768;23;20451;-77
2023/02/11 11:19:21;;;;;;;18.83;9.13;;;5.20;99.90;;;;;;6117384;23;20523;-77
2023/02/11 11:21:51;;;;;;;20.30;10.17;;;5.40;99.90;;;;;;6145944;23;20448;-78
2023/02/11 11:24:21;;;;;;;17.37;9.60;;;5.40;99.90;;;;;;6146053;23;20427;-76
2023/02/11 11:26:51;;;;;;;18.17;9.50;;;5.10;99.90;;;;;;6145829;23;20454;-77
2023/02/11 11:29:20;;;;;;;15.93;10.43;;;5.20;99.90;;;;;;6146088;23;20766;-77
2023/02/11 11:31:51;;;;;;;15.53;9.17;;;5.10;99.90;;;;;;6146983;23;20755;-84
2023/02/11 11:34:28;;;;;;;19.47;10.93;;;5.20;99.90;;;;;;6146462;23;20485;-77
2023/02/11 11:36:57;;;;;;;16.67;10.10;;;5.10;99.90;;;;;;6146623;23;20407;-78
2023/02/11 11:39:26;;;;;;;16.33;9.93;;;5.10;99.90;;;;;;6146842;23;20412;-75
2023/02/11 11:41:58;;;;;;;15.87;8.93;;;5.30;99.90;;;;;;6145740;23;20911;-79
2023/02/11 11:44:28;;;;;;;18.27;9.27;;;6.10;99.90;;;;;;6145897;23;20492;-79
2023/02/11 11:47:16;;;;;;;15.00;10.17;;;6.20;99.90;;;;;;6146508;23;20492;-78
2023/02/11 11:49:48;;;;;;;16.47;9.10;;;6.60;99.90;;;;;;6146679;23;20493;-80
2023/02/11 11:52:29;;;;;;;18.83;8.80;;;6.50;99.90;;;;;;6145694;23;20474;-81
2023/02/11 11:55:02;;;;;;;12.47;7.30;;;6.50;99.90;;;;;;6145097;23;20399;-79
2023/02/11 11:57:30;;;;;;;13.40;8.77;;;7.20;99.90;;;;;;6150023;23;20409;-78
2023/02/11 11:59:58;;;;;;;14.43;9.30;;;6.40;99.90;;;;;;6148468;23;20413;-77
2023/02/11 12:02:51;;;;;;;12.30;8.33;;;6.20;99.90;;;;;;6147977;23;20803;-78
2023/02/11 12:05:25;;;;;;;13.17;8.73;;;6.00;99.90;;;;;;6147882;23;20456;-77
2023/02/11 12:08:06;;;;;;;15.43;8.03;;;5.70;99.90;;;;;;6146052;23;20950;-82
2023/02/11 12:11:02;;;;;;;14.63;7.37;;;5.60;99.90;;;;;;6145581;23;20435;-82
2023/02/11 12:13:42;;;;;;;16.90;8.80;;;5.50;99.90;;;;;;6143904;23;20815;-80
2023/02/11 12:16:20;;;;;;;11.83;7.73;;;5.40;99.90;;;;;;6144580;23;20393;-78
2023/02/11 12:19:13;;;;;;;17.33;8.30;;;5.50;99.90;;;;;;6145612;23;20524;-83
2023/02/11 12:21:51;;;;;;;15.23;8.20;;;5.60;99.90;;;;;;6142660;23;20978;-81
2023/02/11 12:24:34;;;;;;;19.00;10.10;;;5.50;99.90;;;;;;6147728;23;20433;-78
2023/02/11 12:27:08;;;;;;;18.80;9.83;;;5.50;99.90;;;;;;6149685;23;20462;-77
2023/02/11 12:29:55;;;;;;;15.73;9.40;;;5.50;99.90;;;;;;6149079;23;20400;-81
2023/02/11 12:32:30;;;;;;;15.90;8.00;;;5.70;99.90;;;;;;6151080;23;20567;-83
2023/02/11 12:35:16;;;;;;;14.30;8.27;;;5.90;99.90;;;;;;6155092;23;20389;-83
2023/02/11 12:37:58;;;;;;;18.87;11.20;;;6.20;99.90;;;;;;6161205;23;20727;-87
2023/02/11 12:40:35;;;;;;;13.30;8.37;;;5.90;99.90;;;;;;6155694;23;20389;-90
2023/02/11 12:43:17;;;;;;;14.13;9.30;;;5.90;99.90;;;;;;6147588;23;21028;-86
2023/02/11 12:46:16;;;;;;;13.30;9.20;;;5.90;99.90;;;;;;6147090;23;20397;-78
2023/02/11 12:49:07;;;;;;;15.23;9.07;;;5.80;99.90;;;;;;6112845;23;20413;-84
2023/02/11 12:51:49;;;;;;;16.03;8.47;;;5.80;99.90;;;;;;6147576;23;20530;-85
2023/02/11 12:54:28;;;;;;;12.20;8.77;;;5.90;99.90;;;;;;6146919;23;20401;-81
2023/02/11 12:57:01;;;;;;;15.23;8.93;;;5.90;99.90;;;;;;6146494;23;20433;-82
2023/02/11 12:59:40;;;;;;;12.90;8.00;;;6.00;99.90;;;;;;6149168;23;20397;-85